sensor_id;sensor_type;location;lat;lon;timestamp;P1;durP1;ratioP1;P2;durP2;ratioP2
5696;SDS011;2873;50.966;7.210;2023-02-27T00:01:45;3.55;;;1.90;;
5696;SDS011;2873;50.966;7.210;2023-02-27T00:04:11;2.33;;;2.13;;
5696;SDS011;2873;50.966;7.210;2023-02-27T00:06:37;4.20;;;2.40;;
5696;SDS011;2873;50.966;7.210;2023-02-27T00:09:02;2.63;;;2.10;;
5696;SDS011;2873;50.966;7.210;2023-02-27T00:11:28;2.00;;;1.90;;
5696;SDS011;2873;50.966;7.210;2023-02-27T00:13:54;4.33;;;2.13;;
5696;SDS011;2873;50.966;7.210;2023-02-27T00:16:19;2.80;;;2.20;;
5696;SDS011;2873;50.966;7.210;2023-02-27T00:18:45;2.33;;;2.10;;
5696;SDS011;2873;50.966;7.210;2023-02-27T00:21:10;4.30;;;1.90;;
5696;SDS011;2873;50.966;7.210;2023-02-27T00:23:36;3.70;;;2.15;;
5696;SDS011;2873;50.966;7.210;2023-02-27T00:26:02;2.93;;;1.97;;
5696;SDS011;2873;50.966;7.210;2023-02-27T00:28:28;4.45;;;1.80;;
5696;SDS011;2873;50.966;7.210;2023-02-27T00:30:53;2.58;;;2.00;;
5696;SDS011;2873;50.966;7.210;2023-02-27T00:33:19;2.60;;;2.00;;
5696;SDS011;2873;50.966;7.210;2023-02-27T00:35:53;2.30;;;1.80;;
5696;SDS011;2873;50.966;7.210;2023-02-27T00:38:19;2.90;;;1.88;;
5696;SDS011;2873;50.966;7.210;2023-02-27T00:40:45;2.63;;;1.93;;
5696;SDS011;2873;50.966;7.210;2023-02-27T00:43:10;2.63;;;1.70;;
5696;SDS011;2873;50.966;7.210;2023-02-27T00:45:36;2.00;;;1.80;;
5696;SDS011;2873;50.966;7.210;2023-02-27T00:48:01;1.87;;;1.77;;
5696;SDS011;2873;50.966;7.210;2023-02-27T00:50:27;3.63;;;1.90;;
5696;SDS011;2873;50.966;7.210;2023-02-27T00:52:52;4.10;;;2.00;;
5696;SDS011;2873;50.966;7.210;2023-02-27T00:55:18;1.85;;;1.75;;
5696;SDS011;2873;50.966;7.210;2023-02-27T00:57:43;2.10;;;1.50;;
5696;SDS011;2873;50.966;7.210;2023-02-27T01:00:09;2.30;;;1.70;;
5696;SDS011;2873;50.966;7.210;2023-02-27T01:02:35;1.83;;;1.70;;
5696;SDS011;2873;50.966;7.210;2023-02-27T01:05:01;2.72;;;1.75;;
5696;SDS011;2873;50.966;7.210;2023-02-27T01:07:27;3.75;;;1.90;;
5696;SDS011;2873;50.966;7.210;2023-02-27T01:09:53;4.07;;;2.30;;
5696;SDS011;2873;50.966;7.210;2023-02-27T01:12:18;2.27;;;2.00;;
5696;SDS011;2873;50.966;7.210;2023-02-27T01:14:44;4.10;;;1.90;;
5696;SDS011;2873;50.966;7.210;2023-02-27T01:17:10;1.90;;;1.80;;
5696;SDS011;2873;50.966;7.210;2023-02-27T01:19:35;1.73;;;1.63;;
5696;SDS011;2873;50.966;7.210;2023-02-27T01:22:01;3.70;;;1.90;;
5696;SDS011;2873;50.966;7.210;2023-02-27T01:24:26;2.33;;;2.00;;
5696;SDS011;2873;50.966;7.210;2023-02-27T01:26:52;2.20;;;1.80;;
5696;SDS011;2873;50.966;7.210;2023-02-27T01:29:17;2.00;;;1.60;;
5696;SDS011;2873;50.966;7.210;2023-02-27T01:31:43;2.65;;;2.10;;
5696;SDS011;2873;50.966;7.210;2023-02-27T01:34:08;4.50;;;2.00;;
5696;SDS011;2873;50.966;7.210;2023-02-27T01:36:34;2.00;;;1.90;;
5696;SDS011;2873;50.966;7.210;2023-02-27T01:38:59;5.10;;;1.92;;
5696;SDS011;2873;50.966;7.210;2023-02-27T01:41:25;2.13;;;2.03;;
5696;SDS011;2873;50.966;7.210;2023-02-27T01:44:01;3.70;;;1.90;;
5696;SDS011;2873;50.966;7.210;2023-02-27T01:46:29;2.20;;;1.92;;
5696;SDS011;2873;50.966;7.210;2023-02-27T01:51:35;3.00;;;2.00;;
5696;SDS011;2873;50.966;7.210;2023-02-27T01:54:04;5.60;;;2.00;;
5696;SDS011;2873;50.966;7.210;2023-02-27T01:56:32;2.95;;;2.08;;
5696;SDS011;2873;50.966;7.210;2023-02-27T01:58:59;3.40;;;2.35;;
5696;SDS011;2873;50.966;7.210;2023-02-27T02:01:28;2.28;;;1.80;;
5696;SDS011;2873;50.966;7.210;2023-02-27T02:03:58;3.28;;;2.38;;
5696;SDS011;2873;50.966;7.210;2023-02-27T02:06:34;1.90;;;1.80;;
5696;SDS011;2873;50.966;7.210;2023-02-27T02:09:03;3.10;;;1.95;;
5696;SDS011;2873;50.966;7.210;2023-02-27T02:11:29;2.53;;;1.90;;
5696;SDS011;2873;50.966;7.210;2023-02-27T02:13:56;5.55;;;2.00;;
5696;SDS011;2873;50.966;7.210;2023-02-27T02:40:14;2.30;;;2.10;;
5696;SDS011;2873;50.966;7.210;2023-02-27T02:42:47;2.50;;;1.80;;
5696;SDS011;2873;50.966;7.210;2023-02-27T02:48:03;2.30;;;2.20;;
5696;SDS011;2873;50.966;7.210;2023-02-27T02:50:43;3.67;;;2.00;;
5696;SDS011;2873;50.966;7.210;2023-02-27T02:53:24;2.63;;;2.30;;
5696;SDS011;2873;50.966;7.210;2023-02-27T02:59:16;1.73;;;1.63;;
5696;SDS011;2873;50.966;7.210;2023-02-27T03:02:03;2.35;;;2.25;;
5696;SDS011;2873;50.966;7.210;2023-02-27T03:04:40;3.33;;;1.87;;
5696;SDS011;2873;50.966;7.210;2023-02-27T03:07:23;3.38;;;2.10;;
5696;SDS011;2873;50.966;7.210;2023-02-27T03:09:56;3.90;;;2.03;;
5696;SDS011;2873;50.966;7.210;2023-02-27T03:12:30;2.28;;;2.08;;
5696;SDS011;2873;50.966;7.210;2023-02-27T03:17:45;4.60;;;2.00;;
5696;SDS011;2873;50.966;7.210;2023-02-27T03:20:17;2.90;;;2.38;;
5696;SDS011;2873;50.966;7.210;2023-02-27T03:22:46;4.05;;;2.47;;
5696;SDS011;2873;50.966;7.210;2023-02-27T03:25:16;3.80;;;2.30;;
5696;SDS011;2873;50.966;7.210;2023-02-27T03:27:45;4.50;;;2.40;;
5696;SDS011;2873;50.966;7.210;2023-02-27T03:30:20;3.90;;;2.20;;
5696;SDS011;2873;50.966;7.210;2023-02-27T03:32:54;2.40;;;2.20;;
5696;SDS011;2873;50.966;7.210;2023-02-27T03:35:26;2.90;;;2.20;;
5696;SDS011;2873;50.966;7.210;2023-02-27T03:38:05;2.70;;;2.20;;
5696;SDS011;2873;50.966;7.210;2023-02-27T03:40:53;3.50;;;2.10;;
5696;SDS011;2873;50.966;7.210;2023-02-27T03:43:54;2.60;;;2.00;;
5696;SDS011;2873;50.966;7.210;2023-02-27T03:46:31;2.50;;;2.30;;
5696;SDS011;2873;50.966;7.210;2023-02-27T03:48:57;3.33;;;2.57;;
5696;SDS011;2873;50.966;7.210;2023-02-27T03:51:23;4.43;;;2.60;;
5696;SDS011;2873;50.966;7.210;2023-02-27T03:59:24;2.70;;;2.50;;
5696;SDS011;2873;50.966;7.210;2023-02-27T04:01:51;3.35;;;2.50;;
5696;SDS011;2873;50.966;7.210;2023-02-27T04:04:19;4.32;;;2.20;;
5696;SDS011;2873;50.966;7.210;2023-02-27T04:06:48;2.88;;;2.60;;
5696;SDS011;2873;50.966;7.210;2023-02-27T04:20:48;2.35;;;2.20;;
5696;SDS011;2873;50.966;7.210;2023-02-27T04:24:20;2.80;;;2.10;;
5696;SDS011;2873;50.966;7.210;2023-02-27T04:29:17;2.60;;;2.40;;
5696;SDS011;2873;50.966;7.210;2023-02-27T04:31:58;3.00;;;2.30;;
5696;SDS011;2873;50.966;7.210;2023-02-27T04:34:31;3.72;;;2.55;;
5696;SDS011;2873;50.966;7.210;2023-02-27T04:37:10;4.38;;;2.40;;
5696;SDS011;2873;50.966;7.210;2023-02-27T04:39:54;3.03;;;2.72;;
5696;SDS011;2873;50.966;7.210;2023-02-27T04:42:28;3.95;;;2.55;;
5696;SDS011;2873;50.966;7.210;2023-02-27T04:44:58;5.53;;;2.60;;
5696;SDS011;2873;50.966;7.210;2023-02-27T04:47:29;3.22;;;2.92;;
5696;SDS011;2873;50.966;7.210;2023-02-27T04:50:04;4.70;;;2.90;;
5696;SDS011;2873;50.966;7.210;2023-02-27T04:52:42;6.20;;;2.80;;
5696;SDS011;2873;50.966;7.210;2023-02-27T04:55:12;4.13;;;3.00;;
5696;SDS011;2873;50.966;7.210;2023-02-27T04:57:47;3.70;;;3.40;;
5696;SDS011;2873;50.966;7.210;2023-02-27T05:00:16;5.63;;;3.10;;
5696;SDS011;2873;50.966;7.210;2023-02-27T05:02:46;5.03;;;2.70;;
5696;SDS011;2873;50.966;7.210;2023-02-27T05:05:17;3.67;;;3.00;;
5696;SDS011;2873;50.966;7.210;2023-02-27T05:07:51;11.47;;;3.40;;
5696;SDS011;2873;50.966;7.210;2023-02-27T05:10:44;4.30;;;3.30;;
5696;SDS011;2873;50.966;7.210;2023-02-27T05:18:57;4.60;;;3.20;;
5696;SDS011;2873;50.966;7.210;2023-02-27T05:21:37;2.77;;;2.57;;
5696;SDS011;2873;50.966;7.210;2023-02-27T05:24:32;6.38;;;2.80;;
5696;SDS011;2873;50.966;7.210;2023-02-27T05:27:09;3.25;;;2.88;;
5696;SDS011;2873;50.966;7.210;2023-02-27T05:29:57;4.57;;;2.80;;
5696;SDS011;2873;50.966;7.210;2023-02-27T05:32:30;3.22;;;2.92;;
5696;SDS011;2873;50.966;7.210;2023-02-27T05:40:24;3.10;;;2.70;;
5696;SDS011;2873;50.966;7.210;2023-02-27T05:42:57;5.13;;;2.40;;
5696;SDS011;2873;50.966;7.210;2023-02-27T05:45:28;3.80;;;3.10;;
5696;SDS011;2873;50.966;7.210;2023-02-27T05:48:16;5.28;;;2.40;;
5696;SDS011;2873;50.966;7.210;2023-02-27T05:50:49;2.73;;;2.40;;
5696;SDS011;2873;50.966;7.210;2023-02-27T05:53:17;3.70;;;2.80;;
5696;SDS011;2873;50.966;7.210;2023-02-27T05:55:51;7.72;;;3.17;;
5696;SDS011;2873;50.966;7.210;2023-02-27T05:58:32;5.85;;;2.80;;
5696;SDS011;2873;50.966;7.210;2023-02-27T06:01:04;2.70;;;2.30;;
5696;SDS011;2873;50.966;7.210;2023-02-27T06:03:32;4.22;;;2.88;;
5696;SDS011;2873;50.966;7.210;2023-02-27T06:06:00;6.17;;;2.80;;
5696;SDS011;2873;50.966;7.210;2023-02-27T06:08:28;3.92;;;3.08;;
5696;SDS011;2873;50.966;7.210;2023-02-27T06:10:54;4.97;;;2.97;;
5696;SDS011;2873;50.966;7.210;2023-02-27T06:13:19;4.87;;;3.27;;
5696;SDS011;2873;50.966;7.210;2023-02-27T06:15:46;4.60;;;3.80;;
5696;SDS011;2873;50.966;7.210;2023-02-27T06:18:12;5.60;;;3.03;;
5696;SDS011;2873;50.966;7.210;2023-02-27T06:20:39;4.97;;;3.30;;
5696;SDS011;2873;50.966;7.210;2023-02-27T06:23:05;8.00;;;3.25;;
5696;SDS011;2873;50.966;7.210;2023-02-27T06:25:30;5.78;;;3.60;;
5696;SDS011;2873;50.966;7.210;2023-02-27T06:27:56;6.30;;;3.08;;
5696;SDS011;2873;50.966;7.210;2023-02-27T06:30:22;3.22;;;2.92;;
5696;SDS011;2873;50.966;7.210;2023-02-27T06:32:47;6.90;;;3.57;;
5696;SDS011;2873;50.966;7.210;2023-02-27T06:35:13;5.10;;;3.53;;
5696;SDS011;2873;50.966;7.210;2023-02-27T06:37:39;6.18;;;4.00;;
5696;SDS011;2873;50.966;7.210;2023-02-27T06:40:05;5.23;;;4.30;;
5696;SDS011;2873;50.966;7.210;2023-02-27T06:42:35;6.85;;;2.90;;
5696;SDS011;2873;50.966;7.210;2023-02-27T06:45:08;4.77;;;3.17;;
5696;SDS011;2873;50.966;7.210;2023-02-27T06:47:35;2.27;;;2.17;;
5696;SDS011;2873;50.966;7.210;2023-02-27T06:50:01;2.40;;;2.20;;
5696;SDS011;2873;50.966;7.210;2023-02-27T06:52:29;2.17;;;1.90;;
5696;SDS011;2873;50.966;7.210;2023-02-27T06:54:55;3.43;;;2.30;;
5696;SDS011;2873;50.966;7.210;2023-02-27T06:57:21;3.97;;;3.00;;
5696;SDS011;2873;50.966;7.210;2023-02-27T06:59:46;6.90;;;2.63;;
5696;SDS011;2873;50.966;7.210;2023-02-27T07:02:13;2.30;;;2.10;;
5696;SDS011;2873;50.966;7.210;2023-02-27T07:04:39;2.30;;;2.10;;
5696;SDS011;2873;50.966;7.210;2023-02-27T07:07:06;6.30;;;2.40;;
5696;SDS011;2873;50.966;7.210;2023-02-27T07:09:31;6.07;;;3.50;;
5696;SDS011;2873;50.966;7.210;2023-02-27T07:11:57;5.82;;;3.60;;
5696;SDS011;2873;50.966;7.210;2023-02-27T07:14:23;6.47;;;4.80;;
5696;SDS011;2873;50.966;7.210;2023-02-27T07:16:51;2.97;;;2.60;;
5696;SDS011;2873;50.966;7.210;2023-02-27T07:19:20;2.20;;;1.90;;
5696;SDS011;2873;50.966;7.210;2023-02-27T07:21:46;3.88;;;2.40;;
5696;SDS011;2873;50.966;7.210;2023-02-27T07:24:12;3.65;;;2.10;;
5696;SDS011;2873;50.966;7.210;2023-02-27T07:26:37;6.00;;;2.63;;
5696;SDS011;2873;50.966;7.210;2023-02-27T07:29:03;2.88;;;1.80;;
5696;SDS011;2873;50.966;7.210;2023-02-27T07:31:29;2.40;;;2.20;;
5696;SDS011;2873;50.966;7.210;2023-02-27T07:33:55;2.40;;;2.00;;
5696;SDS011;2873;50.966;7.210;2023-02-27T07:36:21;2.13;;;1.90;;
5696;SDS011;2873;50.966;7.210;2023-02-27T07:38:47;2.55;;;1.90;;
5696;SDS011;2873;50.966;7.210;2023-02-27T07:41:13;3.50;;;2.00;;
5696;SDS011;2873;50.966;7.210;2023-02-27T07:43:38;3.50;;;2.10;;
5696;SDS011;2873;50.966;7.210;2023-02-27T07:46:04;2.33;;;2.00;;
5696;SDS011;2873;50.966;7.210;2023-02-27T07:48:30;5.53;;;1.85;;
5696;SDS011;2873;50.966;7.210;2023-02-27T07:50:56;2.38;;;2.10;;
5696;SDS011;2873;50.966;7.210;2023-02-27T07:53:22;2.20;;;2.10;;
5696;SDS011;2873;50.966;7.210;2023-02-27T07:55:48;2.42;;;2.20;;
5696;SDS011;2873;50.966;7.210;2023-02-27T07:58:13;2.50;;;2.30;;
5696;SDS011;2873;50.966;7.210;2023-02-27T08:00:39;2.60;;;2.40;;
5696;SDS011;2873;50.966;7.210;2023-02-27T08:03:05;2.27;;;1.90;;
5696;SDS011;2873;50.966;7.210;2023-02-27T08:05:30;2.00;;;1.90;;
5696;SDS011;2873;50.966;7.210;2023-02-27T08:07:56;2.47;;;2.13;;
5696;SDS011;2873;50.966;7.210;2023-02-27T08:10:22;3.97;;;1.90;;
5696;SDS011;2873;50.966;7.210;2023-02-27T08:12:48;2.83;;;2.00;;
5696;SDS011;2873;50.966;7.210;2023-02-27T08:15:14;4.50;;;2.57;;
5696;SDS011;2873;50.966;7.210;2023-02-27T08:17:41;2.53;;;1.88;;
5696;SDS011;2873;50.966;7.210;2023-02-27T08:20:07;1.70;;;1.60;;
5696;SDS011;2873;50.966;7.210;2023-02-27T08:22:35;2.35;;;1.55;;
5696;SDS011;2873;50.966;7.210;2023-02-27T08:25:00;2.70;;;1.67;;
5696;SDS011;2873;50.966;7.210;2023-02-27T08:27:26;5.67;;;1.80;;
5696;SDS011;2873;50.966;7.210;2023-02-27T08:29:51;4.00;;;1.60;;
5696;SDS011;2873;50.966;7.210;2023-02-27T08:32:17;1.60;;;1.50;;
5696;SDS011;2873;50.966;7.210;2023-02-27T08:34:42;1.52;;;1.42;;
5696;SDS011;2873;50.966;7.210;2023-02-27T08:37:08;1.40;;;1.30;;
5696;SDS011;2873;50.966;7.210;2023-02-27T08:39:33;3.20;;;1.50;;
5696;SDS011;2873;50.966;7.210;2023-02-27T08:41:59;1.70;;;1.60;;
5696;SDS011;2873;50.966;7.210;2023-02-27T08:44:25;3.30;;;1.58;;
5696;SDS011;2873;50.966;7.210;2023-02-27T08:46:50;1.53;;;1.43;;
5696;SDS011;2873;50.966;7.210;2023-02-27T08:49:16;1.63;;;1.40;;
5696;SDS011;2873;50.966;7.210;2023-02-27T08:51:41;1.50;;;1.40;;
5696;SDS011;2873;50.966;7.210;2023-02-27T08:54:07;1.70;;;1.48;;
5696;SDS011;2873;50.966;7.210;2023-02-27T08:56:32;1.87;;;1.40;;
5696;SDS011;2873;50.966;7.210;2023-02-27T08:58:58;1.30;;;1.30;;
5696;SDS011;2873;50.966;7.210;2023-02-27T09:01:24;1.58;;;1.48;;
5696;SDS011;2873;50.966;7.210;2023-02-27T09:03:52;1.45;;;1.35;;
5696;SDS011;2873;50.966;7.210;2023-02-27T09:06:17;4.50;;;2.00;;
5696;SDS011;2873;50.966;7.210;2023-02-27T09:08:43;2.38;;;1.65;;
5696;SDS011;2873;50.966;7.210;2023-02-27T09:11:08;6.93;;;1.70;;
5696;SDS011;2873;50.966;7.210;2023-02-27T09:13:34;1.50;;;1.40;;
5696;SDS011;2873;50.966;7.210;2023-02-27T09:15:59;4.10;;;1.70;;
5696;SDS011;2873;50.966;7.210;2023-02-27T09:18:25;1.70;;;1.60;;
5696;SDS011;2873;50.966;7.210;2023-02-27T09:20:51;2.30;;;2.10;;
5696;SDS011;2873;50.966;7.210;2023-02-27T09:23:17;1.95;;;1.80;;
5696;SDS011;2873;50.966;7.210;2023-02-27T09:25:42;1.90;;;1.80;;
5696;SDS011;2873;50.966;7.210;2023-02-27T09:28:08;2.70;;;1.97;;
5696;SDS011;2873;50.966;7.210;2023-02-27T09:30:34;2.00;;;1.80;;
5696;SDS011;2873;50.966;7.210;2023-02-27T09:32:59;3.20;;;1.50;;
5696;SDS011;2873;50.966;7.210;2023-02-27T09:35:25;1.95;;;1.60;;
5696;SDS011;2873;50.966;7.210;2023-02-27T09:37:50;3.00;;;1.80;;
5696;SDS011;2873;50.966;7.210;2023-02-27T09:40:22;1.60;;;1.50;;
5696;SDS011;2873;50.966;7.210;2023-02-27T09:42:53;1.90;;;1.60;;
5696;SDS011;2873;50.966;7.210;2023-02-27T09:45:29;3.70;;;1.65;;
5696;SDS011;2873;50.966;7.210;2023-02-27T09:50:50;1.63;;;1.53;;
5696;SDS011;2873;50.966;7.210;2023-02-27T09:55:45;1.45;;;1.35;;
5696;SDS011;2873;50.966;7.210;2023-02-27T10:01:09;1.10;;;1.10;;
5696;SDS011;2873;50.966;7.210;2023-02-27T10:03:48;1.58;;;1.20;;
5696;SDS011;2873;50.966;7.210;2023-02-27T10:06:40;1.30;;;0.98;;
5696;SDS011;2873;50.966;7.210;2023-02-27T10:17:17;1.00;;;0.80;;
5696;SDS011;2873;50.966;7.210;2023-02-27T10:19:48;1.00;;;0.80;;
5696;SDS011;2873;50.966;7.210;2023-02-27T10:22:17;0.93;;;0.87;;
5696;SDS011;2873;50.966;7.210;2023-02-27T10:24:49;0.80;;;0.80;;
5696;SDS011;2873;50.966;7.210;2023-02-27T10:27:19;1.63;;;0.90;;
5696;SDS011;2873;50.966;7.210;2023-02-27T10:29:45;2.10;;;0.90;;
5696;SDS011;2873;50.966;7.210;2023-02-27T10:34:42;1.40;;;0.95;;
5696;SDS011;2873;50.966;7.210;2023-02-27T10:37:13;0.90;;;0.90;;
5696;SDS011;2873;50.966;7.210;2023-02-27T10:39:46;0.90;;;0.90;;
5696;SDS011;2873;50.966;7.210;2023-02-27T10:42:24;1.90;;;1.10;;
5696;SDS011;2873;50.966;7.210;2023-02-27T10:44:53;0.80;;;0.80;;
5696;SDS011;2873;50.966;7.210;2023-02-27T10:47:21;0.90;;;0.90;;
5696;SDS011;2873;50.966;7.210;2023-02-27T10:49:49;1.00;;;0.90;;
5696;SDS011;2873;50.966;7.210;2023-02-27T10:52:15;2.92;;;1.20;;
5696;SDS011;2873;50.966;7.210;2023-02-27T10:54:42;1.48;;;1.08;;
5696;SDS011;2873;50.966;7.210;2023-02-27T10:57:28;2.08;;;0.88;;
5696;SDS011;2873;50.966;7.210;2023-02-27T11:00:02;1.87;;;0.80;;
5696;SDS011;2873;50.966;7.210;2023-02-27T11:05:16;1.00;;;0.90;;
5696;SDS011;2873;50.966;7.210;2023-02-27T11:07:48;1.00;;;1.00;;
5696;SDS011;2873;50.966;7.210;2023-02-27T11:10:15;0.90;;;0.90;;
5696;SDS011;2873;50.966;7.210;2023-02-27T11:12:56;5.22;;;4.72;;
5696;SDS011;2873;50.966;7.210;2023-02-27T11:15:32;2.60;;;1.10;;
5696;SDS011;2873;50.966;7.210;2023-02-27T11:20:43;1.90;;;1.00;;
5696;SDS011;2873;50.966;7.210;2023-02-27T11:23:15;2.03;;;1.20;;
5696;SDS011;2873;50.966;7.210;2023-02-27T11:25:43;0.85;;;0.85;;
5696;SDS011;2873;50.966;7.210;2023-02-27T11:28:13;1.60;;;1.20;;
5696;SDS011;2873;50.966;7.210;2023-02-27T11:31:14;1.38;;;1.05;;
5696;SDS011;2873;50.966;7.210;2023-02-27T11:33:52;1.50;;;1.40;;
5696;SDS011;2873;50.966;7.210;2023-02-27T11:36:21;1.40;;;1.30;;
5696;SDS011;2873;50.966;7.210;2023-02-27T11:39:01;1.40;;;1.30;;
5696;SDS011;2873;50.966;7.210;2023-02-27T11:41:31;1.00;;;1.00;;
5696;SDS011;2873;50.966;7.210;2023-02-27T11:43:58;3.30;;;1.50;;
5696;SDS011;2873;50.966;7.210;2023-02-27T11:46:26;1.20;;;1.10;;
5696;SDS011;2873;50.966;7.210;2023-02-27T11:49:35;1.90;;;1.10;;
5696;SDS011;2873;50.966;7.210;2023-02-27T11:51:47;0.90;;;0.90;;
5696;SDS011;2873;50.966;7.210;2023-02-27T11:57:07;4.05;;;1.30;;
5696;SDS011;2873;50.966;7.210;2023-02-27T11:59:52;2.43;;;0.90;;
5696;SDS011;2873;50.966;7.210;2023-02-27T12:04:57;1.17;;;1.08;;
5696;SDS011;2873;50.966;7.210;2023-02-27T12:07:48;1.30;;;1.20;;
5696;SDS011;2873;50.966;7.210;2023-02-27T12:10:26;2.00;;;1.20;;
5696;SDS011;2873;50.966;7.210;2023-02-27T12:23:30;2.00;;;1.00;;
5696;SDS011;2873;50.966;7.210;2023-02-27T12:26:04;1.38;;;1.30;;
5696;SDS011;2873;50.966;7.210;2023-02-27T12:28:36;1.30;;;1.20;;
5696;SDS011;2873;50.966;7.210;2023-02-27T12:31:37;3.83;;;1.40;;
5696;SDS011;2873;50.966;7.210;2023-02-27T12:34:24;1.90;;;1.10;;
5696;SDS011;2873;50.966;7.210;2023-02-27T12:36:53;7.10;;;1.40;;
5696;SDS011;2873;50.966;7.210;2023-02-27T12:39:25;4.30;;;1.60;;
5696;SDS011;2873;50.966;7.210;2023-02-27T12:42:08;2.35;;;1.30;;
5696;SDS011;2873;50.966;7.210;2023-02-27T12:50:56;1.90;;;1.20;;
5696;SDS011;2873;50.966;7.210;2023-02-27T12:53:51;5.60;;;1.30;;
5696;SDS011;2873;50.966;7.210;2023-02-27T12:56:26;1.67;;;1.13;;
5696;SDS011;2873;50.966;7.210;2023-02-27T12:59:05;2.80;;;1.40;;
5696;SDS011;2873;50.966;7.210;2023-02-27T13:04:33;2.38;;;1.30;;
5696;SDS011;2873;50.966;7.210;2023-02-27T13:07:08;1.20;;;1.10;;
5696;SDS011;2873;50.966;7.210;2023-02-27T13:09:45;1.90;;;1.15;;
5696;SDS011;2873;50.966;7.210;2023-02-27T13:12:25;2.17;;;1.30;;
5696;SDS011;2873;50.966;7.210;2023-02-27T13:25:29;3.72;;;1.10;;
5696;SDS011;2873;50.966;7.210;2023-02-27T13:27:57;1.30;;;1.00;;
5696;SDS011;2873;50.966;7.210;2023-02-27T13:30:26;1.23;;;1.00;;
5696;SDS011;2873;50.966;7.210;2023-02-27T13:33:00;1.60;;;1.20;;
5696;SDS011;2873;50.966;7.210;2023-02-27T13:43:44;1.10;;;0.80;;
5696;SDS011;2873;50.966;7.210;2023-02-27T13:48:52;2.03;;;0.82;;
5696;SDS011;2873;50.966;7.210;2023-02-27T13:54:07;1.50;;;0.90;;
5696;SDS011;2873;50.966;7.210;2023-02-27T13:56:40;0.90;;;0.90;;
5696;SDS011;2873;50.966;7.210;2023-02-27T14:01:55;1.50;;;0.70;;
5696;SDS011;2873;50.966;7.210;2023-02-27T14:04:22;4.85;;;0.82;;
5696;SDS011;2873;50.966;7.210;2023-02-27T14:06:58;2.63;;;1.20;;
5696;SDS011;2873;50.966;7.210;2023-02-27T14:09:26;1.02;;;0.73;;
5696;SDS011;2873;50.966;7.210;2023-02-27T14:12:00;1.20;;;0.80;;
5696;SDS011;2873;50.966;7.210;2023-02-27T14:14:35;1.13;;;0.80;;
5696;SDS011;2873;50.966;7.210;2023-02-27T14:17:04;2.95;;;1.30;;
5696;SDS011;2873;50.966;7.210;2023-02-27T14:24:52;0.80;;;0.70;;
5696;SDS011;2873;50.966;7.210;2023-02-27T14:27:23;1.50;;;0.80;;
5696;SDS011;2873;50.966;7.210;2023-02-27T14:29:56;1.10;;;0.70;;
5696;SDS011;2873;50.966;7.210;2023-02-27T14:32:30;0.70;;;0.70;;
5696;SDS011;2873;50.966;7.210;2023-02-27T14:34:59;3.05;;;1.00;;
5696;SDS011;2873;50.966;7.210;2023-02-27T14:37:29;0.90;;;0.70;;
5696;SDS011;2873;50.966;7.210;2023-02-27T14:39:55;1.10;;;0.75;;
5696;SDS011;2873;50.966;7.210;2023-02-27T14:45:31;0.90;;;0.90;;
5696;SDS011;2873;50.966;7.210;2023-02-27T14:47:57;0.70;;;0.70;;
5696;SDS011;2873;50.966;7.210;2023-02-27T14:50:28;1.90;;;0.80;;
5696;SDS011;2873;50.966;7.210;2023-02-27T14:53:00;3.20;;;0.90;;
5696;SDS011;2873;50.966;7.210;2023-02-27T14:55:27;1.38;;;0.90;;
5696;SDS011;2873;50.966;7.210;2023-02-27T14:57:59;2.50;;;0.90;;
5696;SDS011;2873;50.966;7.210;2023-02-27T15:00:33;0.93;;;0.80;;
5696;SDS011;2873;50.966;7.210;2023-02-27T15:03:07;1.20;;;0.67;;
5696;SDS011;2873;50.966;7.210;2023-02-27T15:05:35;3.30;;;1.20;;
5696;SDS011;2873;50.966;7.210;2023-02-27T15:08:00;2.45;;;0.98;;
5696;SDS011;2873;50.966;7.210;2023-02-27T15:10:27;1.10;;;0.80;;
5696;SDS011;2873;50.966;7.210;2023-02-27T15:12:57;0.90;;;0.80;;
5696;SDS011;2873;50.966;7.210;2023-02-27T15:15:24;1.10;;;0.90;;
5696;SDS011;2873;50.966;7.210;2023-02-27T15:17:51;1.42;;;1.00;;
5696;SDS011;2873;50.966;7.210;2023-02-27T15:20:32;2.10;;;1.30;;
5696;SDS011;2873;50.966;7.210;2023-02-27T15:23:00;1.80;;;1.27;;
5696;SDS011;2873;50.966;7.210;2023-02-27T15:25:44;3.60;;;1.20;;
5696;SDS011;2873;50.966;7.210;2023-02-27T15:28:18;1.80;;;1.30;;
5696;SDS011;2873;50.966;7.210;2023-02-27T15:30:47;1.00;;;1.00;;
5696;SDS011;2873;50.966;7.210;2023-02-27T15:33:14;1.48;;;0.90;;
5696;SDS011;2873;50.966;7.210;2023-02-27T15:35:41;3.40;;;0.90;;
5696;SDS011;2873;50.966;7.210;2023-02-27T15:38:22;1.05;;;0.90;;
5696;SDS011;2873;50.966;7.210;2023-02-27T15:40:49;2.20;;;0.90;;
5696;SDS011;2873;50.966;7.210;2023-02-27T15:43:15;3.10;;;1.20;;
5696;SDS011;2873;50.966;7.210;2023-02-27T15:45:41;2.70;;;1.30;;
5696;SDS011;2873;50.966;7.210;2023-02-27T15:48:08;2.22;;;1.10;;
5696;SDS011;2873;50.966;7.210;2023-02-27T15:50:40;2.07;;;1.10;;
5696;SDS011;2873;50.966;7.210;2023-02-27T15:53:20;3.33;;;1.30;;
5696;SDS011;2873;50.966;7.210;2023-02-27T15:55:54;2.28;;;1.10;;
5696;SDS011;2873;50.966;7.210;2023-02-27T15:58:31;2.00;;;1.65;;
5696;SDS011;2873;50.966;7.210;2023-02-27T16:01:04;1.30;;;0.90;;
5696;SDS011;2873;50.966;7.210;2023-02-27T16:03:43;2.90;;;1.45;;
5696;SDS011;2873;50.966;7.210;2023-02-27T16:06:14;3.53;;;1.10;;
5696;SDS011;2873;50.966;7.210;2023-02-27T16:08:44;1.80;;;1.35;;
5696;SDS011;2873;50.966;7.210;2023-02-27T16:11:18;1.60;;;1.00;;
5696;SDS011;2873;50.966;7.210;2023-02-27T16:13:49;5.00;;;1.08;;
5696;SDS011;2873;50.966;7.210;2023-02-27T16:18:48;0.70;;;0.70;;
5696;SDS011;2873;50.966;7.210;2023-02-27T16:23:43;1.55;;;0.90;;
5696;SDS011;2873;50.966;7.210;2023-02-27T16:31:52;2.85;;;0.80;;
5696;SDS011;2873;50.966;7.210;2023-02-27T16:36:52;1.40;;;1.05;;
5696;SDS011;2873;50.966;7.210;2023-02-27T16:39:20;2.00;;;1.10;;
5696;SDS011;2873;50.966;7.210;2023-02-27T16:41:46;2.83;;;0.85;;
5696;SDS011;2873;50.966;7.210;2023-02-27T16:44:13;0.88;;;0.80;;
5696;SDS011;2873;50.966;7.210;2023-02-27T16:46:39;3.30;;;1.10;;
5696;SDS011;2873;50.966;7.210;2023-02-27T16:49:05;4.22;;;0.80;;
5696;SDS011;2873;50.966;7.210;2023-02-27T16:51:31;2.40;;;0.70;;
5696;SDS011;2873;50.966;7.210;2023-02-27T16:53:58;1.83;;;1.08;;
5696;SDS011;2873;50.966;7.210;2023-02-27T16:56:25;4.73;;;1.20;;
5696;SDS011;2873;50.966;7.210;2023-02-27T16:58:52;1.45;;;1.10;;
5696;SDS011;2873;50.966;7.210;2023-02-27T17:01:18;2.05;;;1.10;;
5696;SDS011;2873;50.966;7.210;2023-02-27T17:03:44;2.33;;;1.30;;
5696;SDS011;2873;50.966;7.210;2023-02-27T17:06:11;3.70;;;1.40;;
5696;SDS011;2873;50.966;7.210;2023-02-27T17:08:38;3.80;;;1.00;;
5696;SDS011;2873;50.966;7.210;2023-02-27T17:11:05;2.22;;;1.25;;
5696;SDS011;2873;50.966;7.210;2023-02-27T17:13:31;3.10;;;1.20;;
5696;SDS011;2873;50.966;7.210;2023-02-27T17:15:58;1.30;;;1.00;;
5696;SDS011;2873;50.966;7.210;2023-02-27T17:18:24;2.57;;;1.20;;
5696;SDS011;2873;50.966;7.210;2023-02-27T17:20:50;2.10;;;0.95;;
5696;SDS011;2873;50.966;7.210;2023-02-27T17:23:16;1.83;;;1.10;;
5696;SDS011;2873;50.966;7.210;2023-02-27T17:25:42;2.53;;;1.30;;
5696;SDS011;2873;50.966;7.210;2023-02-27T17:28:08;3.97;;;1.30;;
5696;SDS011;2873;50.966;7.210;2023-02-27T17:30:33;3.53;;;1.20;;
5696;SDS011;2873;50.966;7.210;2023-02-27T17:33:00;6.30;;;1.60;;
5696;SDS011;2873;50.966;7.210;2023-02-27T17:35:26;1.58;;;1.48;;
5696;SDS011;2873;50.966;7.210;2023-02-27T17:37:52;3.10;;;1.30;;
5696;SDS011;2873;50.966;7.210;2023-02-27T17:40:17;3.13;;;1.27;;
5696;SDS011;2873;50.966;7.210;2023-02-27T17:42:43;2.10;;;1.30;;
5696;SDS011;2873;50.966;7.210;2023-02-27T17:45:09;2.55;;;1.70;;
5696;SDS011;2873;50.966;7.210;2023-02-27T17:47:35;1.93;;;1.73;;
5696;SDS011;2873;50.966;7.210;2023-02-27T17:50:01;4.43;;;1.45;;
5696;SDS011;2873;50.966;7.210;2023-02-27T17:52:28;4.47;;;1.50;;
5696;SDS011;2873;50.966;7.210;2023-02-27T17:54:53;2.00;;;1.40;;
5696;SDS011;2873;50.966;7.210;2023-02-27T17:57:19;1.10;;;1.00;;
5696;SDS011;2873;50.966;7.210;2023-02-27T17:59:45;1.80;;;1.15;;
5696;SDS011;2873;50.966;7.210;2023-02-27T18:02:11;2.70;;;1.80;;
5696;SDS011;2873;50.966;7.210;2023-02-27T18:04:38;1.60;;;1.37;;
5696;SDS011;2873;50.966;7.210;2023-02-27T18:07:04;1.42;;;1.33;;
5696;SDS011;2873;50.966;7.210;2023-02-27T18:09:29;1.60;;;1.20;;
5696;SDS011;2873;50.966;7.210;2023-02-27T18:11:55;2.22;;;1.50;;
5696;SDS011;2873;50.966;7.210;2023-02-27T18:14:22;3.70;;;1.60;;
5696;SDS011;2873;50.966;7.210;2023-02-27T18:16:48;2.67;;;1.70;;